Terminal Aerodrome Forecast
Issued by NWS Sterling, VA

Current Version | Previous Version | Text Only | Print | Product List | Glossary Off
Versions: 1 2 3 4 5 6 7 8 9 10 11 12 13 14 15 16 17 18 19 20 21 22 23 24 25

000
FTUS41 KLWX 171134
TAFIAD
TAF
KIAD 171134Z 1712/1818 17005KT P6SM SCT060 BKN120
     FM171300 20008G16KT P6SM SCT060
     FM171600 23010KT P6SM BKN040
     FM171800 26006KT 6SM -SHRA BKN040
     FM172200 31005KT P6SM BKN040
     FM180100 31004KT P6SM SCT040
     FM180600 32004KT P6SM FEW250=

USA.gov is the U.S. government's official web portal to all federal, state and local government web resources and services.